Time;durP1;ratioP1;P1;durP2;ratioP2;P2;SDS_P1;SDS_P2;PMS_P1;PMS_P2;Temp;Humidity;BMP_temperature;BMP_pressure;BME280_temperature;BME280_humidity;BME280_pressure;Samples;Min_cycle;Max_cycle;Signal;HPM_P1;HPM_P2
2022/02/03 00:02:14;;;;;;;6.03;2.50;;;;;;;19.46;49.57;100779.81;4959641;28;20533;-43
2022/02/03 00:04:53;;;;;;;4.43;1.67;;;;;;;19.46;49.40;100776.34;4962748;28;20037;-43
2022/02/03 00:07:25;;;;;;;5.07;2.25;;;;;;;19.46;49.52;100778.97;4980401;28;20069;-42
2022/02/03 00:26:12;;;;;;;4.95;2.38;;;;;;;19.41;49.18;100795.41;4983611;28;20133;-40
2022/02/03 00:28:44;;;;;;;5.22;1.77;;;;;;;19.40;49.19;100806.19;4986609;28;20034;-44
2022/02/03 00:31:29;;;;;;;3.58;1.58;;;;;;;19.40;49.13;100811.47;4987400;28;20044;-48
2022/02/03 00:34:14;;;;;;;4.85;1.95;;;;;;;19.38;49.21;100814.28;4986908;28;20038;-44
2022/02/03 00:50:28;;;;;;;4.63;1.67;;;;;;;19.30;47.76;100835.59;4986448;28;20060;-38
2022/02/03 00:52:53;;;;;;;3.58;1.77;;;;;;;19.30;47.55;100840.88;4986448;28;20508;-41
2022/02/03 00:55:19;;;;;;;4.28;1.73;;;;;;;19.30;47.63;100840.88;4986733;28;20026;-42
2022/02/03 00:57:51;;;;;;;3.13;1.52;;;;;;;19.29;47.58;100846.38;4987034;28;20034;-42
2022/02/03 01:00:19;;;;;;;3.88;1.58;;;;;;;19.27;47.75;100838.63;4984602;28;20093;-46
2022/02/03 01:02:51;;;;;;;2.50;1.30;;;;;;;19.26;47.57;100858.13;4986711;28;20425;-46
2022/02/03 01:05:17;;;;;;;3.55;1.42;;;;;;;19.25;47.54;100872.34;4985450;28;20178;-45
2022/02/03 01:07:47;;;;;;;3.38;1.48;;;;;;;19.22;47.52;100868.25;4985403;28;20026;-46
2022/02/03 01:10:21;;;;;;;2.60;1.00;;;;;;;19.20;47.56;100867.63;4968527;28;20517;-37
2022/02/03 01:13:06;;;;;;;3.88;1.52;;;;;;;19.19;47.60;100873.09;4985953;28;20044;-42
2022/02/03 01:20:56;;;;;;;5.15;1.17;;;;;;;19.16;47.42;100884.03;4986236;28;20065;-37
2022/02/03 01:43:14;;;;;;;3.60;1.35;;;;;;;19.08;47.18;100902.66;4986959;28;20085;-44
2022/02/03 01:43:20;;;;;;;2.38;1.45;;;;;;;19.09;47.16;100912.22;4971452;28;20053;-41
2022/02/03 01:53:49;;;;;;;2.30;1.13;;;;;;;19.08;47.03;100923.78;4986601;28;20741;-45
2022/02/03 01:56:18;;;;;;;3.22;1.30;;;;;;;19.08;46.78;100924.59;4986757;28;20034;-44
2022/02/03 01:58:50;;;;;;;2.65;1.10;;;;;;;19.07;46.60;100927.44;4983636;28;20049;-43
2022/02/03 02:01:31;;;;;;;2.97;1.40;;;;;;;19.06;46.60;100933.72;4985825;28;20041;-43
2022/02/03 02:04:24;;;;;;;2.53;1.10;;;;;;;19.03;46.67;100934.91;4985654;28;20042;-45
2022/02/03 02:07:11;;;;;;;2.40;0.95;;;;;;;19.03;46.92;100952.59;4982428;28;20133;-42
2022/02/03 02:09:53;;;;;;;3.28;1.50;;;;;;;19.04;46.92;100954.22;4983278;28;20038;-44
2022/02/03 02:12:36;;;;;;;2.17;1.02;;;;;;;19.02;46.74;100943.03;5177305;23;20093;-42
2022/02/03 02:42:51;;;;;;;2.92;1.10;;;;;;;18.88;46.74;100981.69;4968385;28;20034;-38
2022/02/03 02:45:23;;;;;;;2.15;0.98;;;;;;;18.88;46.79;100982.50;4967945;28;20740;-39
2022/02/03 02:48:08;;;;;;;3.03;1.08;;;;;;;18.88;46.53;100979.06;4967870;28;20038;-44
2022/02/03 02:53:29;;;;;;;2.42;1.10;;;;;;;18.92;46.32;100992.66;4967800;28;20201;-39
2022/02/03 02:56:21;;;;;;;2.33;1.10;;;;;;;18.89;46.08;100989.44;4950359;28;20038;-38
2022/02/03 03:35:06;;;;;;;3.85;0.85;;;;;;;18.76;46.12;101031.50;4952016;29;20047;-41
2022/02/03 03:37:42;;;;;;;2.20;0.65;;;;;;;18.75;46.12;101034.31;4950335;29;20035;-40
2022/02/03 03:40:09;;;;;;;;;;;;;;;18.64;45.94;101038.25;4952435;29;20379;-42
2022/02/03 03:42:37;;;;;;;1.83;0.90;;;;;;;18.67;46.18;101037.88;4951500;29;19914;-38
2022/02/03 03:45:06;;;;;;;2.10;0.75;;;;;;;18.71;45.95;101039.16;4951723;29;20031;-43
2022/02/03 03:47:34;;;;;;;2.03;0.63;;;;;;;18.72;45.97;101047.88;4951473;29;20390;-40
2022/02/03 03:50:09;;;;;;;1.58;0.82;;;;;;;18.69;45.87;101051.72;4951737;29;20039;-42
2022/02/03 03:52:44;;;;;;;;;;;;;;;18.61;45.83;101051.81;4951801;29;20031;-40
2022/02/03 05:02:53;;;;;;;1.75;0.43;;;;;;;18.54;45.80;101125.56;4919267;29;20070;-42
2022/02/03 05:23:13;;;;;;;2.25;0.50;;;;;;;18.66;45.89;101168.22;4927427;29;20090;-46
2022/02/03 05:25:58;;;;;;;4.03;0.43;;;;;;;18.74;45.97;101176.03;4926682;29;20440;-43
2022/02/03 05:54:56;;;;;;;4.05;0.70;;;;;;;19.16;45.86;101222.94;4978510;28;20038;-50
2022/02/03 06:05:50;;;;;;;3.10;0.63;;;;;;;19.31;45.85;101235.34;4985495;28;20035;-39
2022/02/03 06:23:51;;;;;;;1.60;0.50;;;;;;;19.66;45.89;101268.97;4960277;28;20117;-40
2022/02/03 06:29:04;;;;;;;2.20;0.52;;;;;;;19.77;45.74;101280.91;4969950;28;20481;-39
2022/02/03 06:31:34;;;;;;;4.95;0.95;;;;;;;19.81;45.46;101277.69;4970908;28;20027;-44
2022/02/03 06:33:59;;;;;;;1.70;0.50;;;;;;;19.84;45.57;101284.44;4950882;28;20039;-39
2022/02/03 06:36:25;;;;;;;1.40;0.40;;;;;;;19.88;45.28;101293.63;4963676;28;20454;-41
2022/02/03 06:38:50;;;;;;;4.03;0.50;;;;;;;19.90;45.23;101294.25;4971960;28;20374;-38
2022/02/03 06:41:16;;;;;;;1.05;0.40;;;;;;;19.92;45.22;101292.25;4951207;28;20038;-38
2022/02/03 06:43:43;;;;;;;2.40;0.55;;;;;;;19.93;45.07;101282.50;4953322;28;20170;-40
2022/02/03 06:46:09;;;;;;;2.55;0.50;;;;;;;19.94;45.36;101294.72;4953314;28;20054;-40
2022/02/03 06:48:36;;;;;;;2.55;0.50;;;;;;;19.93;44.48;101291.25;4972216;28;20042;-39
2022/02/03 06:51:16;;;;;;;3.72;0.47;;;;;;;19.96;44.72;101298.00;4967418;28;20046;-42
2022/02/03 06:53:44;;;;;;;3.38;0.40;;;;;;;19.94;44.58;101300.81;4972335;28;20030;-43
2022/02/03 06:56:15;;;;;;;1.10;0.40;;;;;;;19.96;44.38;101312.03;4956052;28;20090;-40
2022/02/03 07:01:15;;;;;;;3.83;0.52;;;;;;;19.99;44.18;101309.03;4970169;28;20034;-41
2022/02/03 07:03:44;;;;;;;1.83;0.43;;;;;;;20.03;43.87;101312.13;4969051;28;20039;-40
2022/02/03 07:06:12;;;;;;;3.80;0.50;;;;;;;20.04;44.59;101317.22;4983398;28;20130;-44
2022/02/03 07:08:40;;;;;;;2.80;0.70;;;;;;;20.05;45.33;101323.31;4949374;29;20035;-44
2022/02/03 07:11:05;;;;;;;2.72;0.70;;;;;;;20.06;45.35;101325.78;4947876;29;20023;-39
2022/02/03 07:13:34;;;;;;;5.15;0.95;;;;;;;20.06;45.24;101325.78;4960388;28;20043;-41
2022/02/03 07:15:59;;;;;;;1.83;0.45;;;;;;;20.06;45.05;101324.97;4953516;28;20382;-45
2022/02/03 07:18:25;;;;;;;2.22;0.60;;;;;;;20.09;45.10;101324.59;4971065;28;20058;-38
2022/02/03 07:20:51;;;;;;;3.05;0.60;;;;;;;20.12;45.17;101325.06;4975123;28;20053;-44
2022/02/03 07:23:16;;;;;;;5.75;0.73;;;;;;;20.12;45.05;101332.97;4969791;28;20474;-44
2022/02/03 07:25:42;;;;;;;4.20;0.65;;;;;;;20.11;44.88;101327.88;4971240;28;20041;-41
2022/02/03 07:28:08;;;;;;;3.70;0.50;;;;;;;20.10;44.55;101320.94;4971547;28;20035;-40
2022/02/03 07:30:35;;;;;;;1.25;0.55;;;;;;;20.10;44.41;101326.25;4970771;28;20034;-46
2022/02/03 07:33:02;;;;;;;2.33;0.70;;;;;;;20.09;44.58;101324.59;4970886;28;20050;-41
2022/02/03 07:35:30;;;;;;;8.38;0.50;;;;;;;20.08;44.06;101323.78;4971112;28;20030;-45
2022/02/03 07:37:56;;;;;;;2.03;0.50;;;;;;;20.08;44.35;101329.06;4970726;28;20132;-38
2022/02/03 07:40:22;;;;;;;3.03;1.00;;;;;;;20.09;44.17;101324.59;4970884;28;20391;-42
2022/02/03 07:42:50;;;;;;;3.38;0.60;;;;;;;20.07;43.85;101331.91;4970496;28;20254;-45
2022/02/03 07:45:17;;;;;;;1.52;0.40;;;;;;;20.06;43.85;101320.50;4949618;29;20093;-38
2022/02/03 07:47:47;;;;;;;3.10;0.60;;;;;;;20.05;43.81;101323.31;4955378;28;20034;-40
2022/02/03 07:50:13;;;;;;;1.70;0.50;;;;;;;20.04;43.65;101330.44;4970681;28;20039;-37
2022/02/03 07:52:39;;;;;;;1.88;0.50;;;;;;;20.02;43.75;101335.09;4970289;28;20404;-40
2022/02/03 07:55:06;;;;;;;1.85;0.50;;;;;;;20.00;43.58;101334.47;4970711;28;20031;-39
2022/02/03 07:57:32;;;;;;;1.83;0.50;;;;;;;20.00;43.61;101339.75;4970863;28;20046;-44
2022/02/03 07:59:58;;;;;;;1.15;0.40;;;;;;;19.96;43.67;101341.13;4970310;28;20386;-38
2022/02/03 08:02:23;;;;;;;1.35;0.55;;;;;;;19.94;43.61;101332.56;4970455;28;20039;-40
2022/02/03 08:04:50;;;;;;;1.48;0.50;;;;;;;19.95;43.60;101342.13;4969354;28;20027;-37
2022/02/03 08:07:19;;;;;;;2.83;0.60;;;;;;;19.94;43.87;101345.78;4969848;28;20117;-42
2022/02/03 08:09:57;;;;;;;2.95;0.82;;;;;;;19.93;43.92;101352.06;4968902;28;20042;-43
2022/02/03 08:12:28;;;;;;;1.42;0.70;;;;;;;19.90;43.98;101355.09;4969865;28;20074;-41
2022/02/03 08:14:54;;;;;;;1.80;0.55;;;;;;;19.88;44.40;101357.09;4965789;28;20078;-41
2022/02/03 08:17:24;;;;;;;1.27;0.50;;;;;;;19.86;44.19;101357.28;4952479;28;20054;-38
2022/02/03 08:19:59;;;;;;;1.65;0.40;;;;;;;19.84;44.21;101358.50;4970049;28;20100;-45
2022/02/03 08:22:34;;;;;;;1.42;0.47;;;;;;;19.81;44.20;101364.13;4969545;28;20438;-39
2022/02/03 08:25:14;;;;;;;1.88;0.93;;;;;;;19.80;44.34;101357.22;4952083;28;20423;-39
2022/02/03 08:32:33;;;;;;;1.02;0.40;;;;;;;19.81;43.77;101362.31;4966477;28;20493;-45
2022/02/03 08:35:18;;;;;;;1.98;0.52;;;;;;;19.81;43.65;101369.44;4956903;28;20086;-41
2022/02/03 08:38:14;;;;;;;3.72;0.55;;;;;;;19.81;43.48;101366.78;4952460;28;20133;-44
2022/02/03 08:40:45;;;;;;;0.90;0.30;;;;;;;19.83;43.01;101372.72;4954015;28;20043;-45
2022/02/03 08:43:12;;;;;;;1.65;0.40;;;;;;;19.84;42.97;101369.88;4967483;28;20031;-42
2022/02/03 08:45:38;;;;;;;3.10;0.40;;;;;;;19.85;42.82;101370.69;4967838;28;20027;-37
2022/02/03 08:48:04;;;;;;;1.75;0.50;;;;;;;19.86;42.64;101369.66;4969771;28;20065;-38
2022/02/03 08:50:32;;;;;;;4.28;0.40;;;;;;;19.84;42.69;101374.34;4954973;28;20028;-41
2022/02/03 08:53:24;;;;;;;2.92;0.50;;;;;;;19.81;42.73;101375.53;4956485;28;20035;-40
2022/02/03 08:56:15;;;;;;;0.95;0.40;;;;;;;19.77;42.83;101368.16;4968287;28;20086;-39
2022/02/03 09:56:11;;;;;;;4.17;0.50;;;;;;;19.29;43.52;101404.63;4968168;28;20129;-37
2022/02/03 09:58:22;;;;;;;7.07;2.78;;;;;;;19.19;40.43;101410.16;4958487;28;20105;-38
2022/02/03 10:04:13;;;;;;;9.02;3.95;;;;;;;19.04;36.92;101411.09;4956652;28;20401;-45
2022/02/03 10:06:24;;;;;;;9.87;3.20;;;;;;;19.03;37.46;101406.81;4960437;28;20097;-41
2022/02/03 10:08:54;;;;;;;6.05;3.15;;;;;;;19.08;37.38;101404.47;4961602;28;20469;-42
2022/02/03 10:11:21;;;;;;;5.60;2.65;;;;;;;19.10;37.67;101403.28;4966131;28;20034;-37
2022/02/03 10:13:57;;;;;;;5.72;2.47;;;;;;;19.08;38.07;101397.34;4956186;28;20035;-39
2022/02/03 10:16:31;;;;;;;10.30;1.70;;;;;;;19.10;39.70;101397.19;4949628;28;20043;-38
2022/02/03 10:19:15;;;;;;;5.00;1.40;;;;;;;19.12;40.34;101403.09;4954194;28;20094;-40
2022/02/03 10:21:43;;;;;;;5.38;1.17;;;;;;;19.13;40.96;101402.94;4948951;28;20041;-42
2022/02/03 10:24:15;;;;;;;10.32;1.40;;;;;;;19.15;41.43;101408.03;4963172;28;20441;-43
2022/02/03 10:26:48;;;;;;;7.05;1.23;;;;;;;19.17;41.88;101408.69;4934813;29;20023;-40
2022/02/03 10:29:23;;;;;;;3.90;1.52;;;;;;;19.17;42.29;101401.56;4931623;28;20332;-44
2022/02/03 10:31:50;;;;;;;4.45;1.25;;;;;;;19.18;42.29;101403.22;4962962;28;20035;-43
2022/02/03 10:34:24;;;;;;;3.78;1.20;;;;;;;19.18;42.77;101408.50;4951946;28;20024;-41
2022/02/03 11:07:09;;;;;;;1.38;0.40;;;;;;;19.20;44.62;101379.25;4870419;29;20043;-42
2022/02/03 11:12:10;;;;;;;2.33;0.63;;;;;;;19.21;44.69;101375.63;4874997;29;20048;-36
2022/02/03 11:14:38;;;;;;;4.20;0.50;;;;;;;19.22;44.87;101367.53;4887245;29;20044;-41
2022/02/03 11:17:05;;;;;;;2.63;0.40;;;;;;;19.23;44.90;101370.97;4884740;29;20506;-40
2022/02/03 11:19:34;;;;;;;1.38;0.50;;;;;;;19.22;44.73;101369.34;4887979;29;20401;-39
2022/02/03 11:22:03;;;;;;;3.50;0.70;;;;;;;19.20;44.59;101361.59;4872097;29;20508;-38
2022/02/03 11:24:32;;;;;;;7.30;0.60;;;;;;;19.17;44.73;101354.03;4890685;29;20396;-42
2022/02/03 11:52:17;;;;;;;1.98;0.50;;;;;;;18.98;43.69;101338.66;4933829;29;20043;-45
2022/02/03 11:58:02;;;;;;;1.30;0.30;;;;;;;18.98;43.71;101329.94;4916132;29;20043;-46
2022/02/03 12:18:01;;;;;;;1.95;0.30;;;;;;;18.95;44.12;101294.13;4928220;29;20054;-39
2022/02/03 12:20:51;;;;;;;3.30;0.40;;;;;;;18.94;43.63;101286.41;4927731;29;20048;-41
2022/02/03 12:26:22;;;;;;;1.02;0.30;;;;;;;18.98;43.88;101285.84;4927151;29;20511;-40
2022/02/03 12:28:57;;;;;;;0.70;0.30;;;;;;;18.99;43.88;101281.41;4920536;29;20554;-38
2022/02/03 12:31:50;;;;;;;2.25;0.50;;;;;;;18.99;44.00;101284.03;4930078;29;20043;-40
2022/02/03 12:37:05;;;;;;;4.05;0.30;;;;;;;18.95;44.05;101273.00;4944721;29;20066;-46
2022/02/03 12:39:45;;;;;;;2.65;0.40;;;;;;;18.96;44.08;101265.91;4928912;29;20514;-39
2022/02/03 12:42:31;;;;;;;2.03;0.55;;;;;;;18.95;44.11;101272.19;4944819;29;20046;-44
2022/02/03 12:45:17;;;;;;;4.38;0.40;;;;;;;18.96;45.70;101268.56;4941835;28;20035;-44
2022/02/03 12:47:47;;;;;;;;;;;;;;;19.06;47.67;101274.41;4925250;29;20351;-55
2022/02/03 12:50:22;;;;;;;4.00;0.60;;;;;;;19.25;48.00;101265.94;4947799;29;19961;-51
2022/02/03 12:52:47;;;;;;;8.63;0.60;;;;;;;19.49;48.77;101270.94;4933804;28;20422;-49
2022/02/03 12:55:23;;;;;;;1.52;0.38;;;;;;;19.61;48.80;101262.59;4966250;28;20039;-41
2022/02/03 12:57:52;;;;;;;;;;;;;;;19.54;48.87;101260.69;4952023;28;20042;-39
2022/02/03 13:02:53;;;;;;;5.72;0.77;;;;;;;19.52;50.84;101264.50;4967686;28;20514;-42
2022/02/03 13:05:21;;;;;;;3.55;0.45;;;;;;;19.50;51.91;101254.09;4968453;28;20125;-46
2022/02/03 13:07:50;;;;;;;5.13;0.70;;;;;;;19.46;53.05;101263.38;4962263;28;20035;-42
2022/02/03 13:10:20;;;;;;;2.40;0.40;;;;;;;19.46;52.84;101259.91;4961110;28;20034;-41
2022/02/03 13:12:54;;;;;;;1.90;0.40;;;;;;;19.44;52.25;101257.47;4967105;28;20047;-37
2022/02/03 13:15:36;;;;;;;3.47;0.32;;;;;;;19.38;51.91;101250.25;4961000;28;20508;-41
2022/02/03 13:18:06;;;;;;;3.90;0.40;;;;;;;19.38;51.56;101252.09;4961716;28;20106;-42
2022/02/03 13:21:00;;;;;;;6.35;0.60;;;;;;;19.33;51.16;101252.66;4963666;28;20081;-38
2022/02/03 13:23:25;;;;;;;2.22;0.40;;;;;;;19.32;50.65;101248.38;4960708;28;20053;-38
2022/02/03 13:31:14;;;;;;;2.13;0.40;;;;;;;19.32;50.86;101248.38;4941412;28;20121;-38
2022/02/03 13:33:46;;;;;;;6.78;0.63;;;;;;;19.33;51.06;101250.00;4948378;28;20027;-48
2022/02/03 13:36:20;;;;;;;6.05;0.43;;;;;;;19.31;51.11;101257.31;4969401;28;20030;-50
2022/02/03 13:39:00;;;;;;;5.05;0.40;;;;;;;19.28;51.13;101252.38;4974416;28;20054;-43
2022/02/03 13:41:29;;;;;;;6.70;0.88;;;;;;;19.24;50.87;101251.09;4962479;28;20082;-47
2022/02/03 13:43:56;;;;;;;2.60;0.90;;;;;;;19.22;50.25;101253.94;4963597;28;20030;-51
2022/02/03 13:46:29;;;;;;;1.15;0.20;;;;;;;19.16;49.37;101240.63;4963987;28;20027;-42
2022/02/03 13:48:55;;;;;;;0.77;0.30;;;;;;;19.15;48.92;101247.72;4953870;28;20104;-45
2022/02/03 13:51:35;;;;;;;2.92;0.30;;;;;;;19.13;48.17;101239.16;4966369;28;20093;-48
2022/02/03 13:54:24;;;;;;;1.73;0.22;;;;;;;19.12;47.91;101241.97;4949934;28;20159;-42
2022/02/03 14:17:12;;;;;;;2.70;0.57;;;;;;;19.03;47.46;101221.94;4933802;29;20135;-62
2022/02/03 14:21:47;;;;;;;1.30;0.32;;;;;;;19.00;46.71;101209.09;4948189;29;20042;-63
2022/02/03 14:27:11;;;;;;;2.20;0.30;;;;;;;18.97;46.42;101206.81;4944278;29;20419;-62
2022/02/03 14:29:44;;;;;;;2.28;0.50;;;;;;;18.98;46.54;101203.19;4941772;29;20574;-62
2022/02/03 14:32:10;;;;;;;1.67;0.30;;;;;;;19.00;46.46;101203.81;4945935;29;20045;-61
2022/02/03 14:34:37;;;;;;;4.65;0.47;;;;;;;19.01;46.57;101206.28;4942843;29;20484;-60
2022/02/03 14:42:16;;;;;;;2.78;0.40;;;;;;;18.98;45.99;101200.53;4945441;29;20047;-60
2022/02/03 14:44:41;;;;;;;2.63;0.40;;;;;;;18.97;45.61;101201.53;4943431;29;20037;-61
2022/02/03 14:47:08;;;;;;;7.03;0.45;;;;;;;18.96;45.76;101207.81;4948633;29;20429;-61
2022/02/03 14:49:34;;;;;;;3.60;0.40;;;;;;;18.95;45.50;101198.25;4929808;29;20042;-65
2022/02/03 14:52:21;;;;;;;4.85;0.95;;;;;;;18.95;45.50;101198.25;4946002;29;20452;-63
2022/02/03 15:00:14;;;;;;;14.38;1.17;;;;;;;18.97;50.51;101194.44;4946790;29;20105;-59
2022/02/03 15:02:40;;;;;;;11.55;0.77;;;;;;;19.05;51.66;101193.53;4949685;28;20035;-68
2022/02/03 15:05:09;;;;;;;8.77;0.50;;;;;;;19.07;52.21;101196.81;4942101;29;20050;-65
2022/02/03 15:07:40;;;;;;;4.53;0.40;;;;;;;19.07;52.13;101194.16;4948942;29;20616;-63
2022/02/03 15:15:23;;;;;;;5.53;0.40;;;;;;;19.04;51.68;101183.97;4942889;28;20496;-62
2022/02/03 15:17:48;;;;;;;3.70;0.40;;;;;;;19.02;51.06;101183.31;4937907;29;20051;-60
2022/02/03 15:20:15;;;;;;;3.67;0.40;;;;;;;19.02;50.75;101183.31;4943496;29;20035;-62
2022/02/03 15:22:40;;;;;;;5.68;0.40;;;;;;;19.00;50.30;101172.13;4948878;29;20027;-59
2022/02/03 15:25:06;;;;;;;6.03;0.88;;;;;;;18.99;49.70;101167.84;4944873;29;20033;-59
2022/02/03 15:27:31;;;;;;;5.68;0.45;;;;;;;18.97;49.46;101169.84;4947178;29;20475;-60
2022/02/03 15:30:01;;;;;;;2.83;0.30;;;;;;;18.96;49.14;101173.50;4944462;29;20094;-59
2022/02/03 15:32:27;;;;;;;3.20;0.50;;;;;;;18.94;48.96;101180.78;4951038;29;20034;-60
2022/02/03 15:34:54;;;;;;;5.38;0.40;;;;;;;18.93;48.71;101171.22;4945704;28;20027;-59
2022/02/03 15:37:21;;;;;;;3.05;0.30;;;;;;;18.92;48.83;101165.13;4943993;29;20032;-58
2022/02/03 15:39:51;;;;;;;4.35;0.40;;;;;;;18.89;48.69;101163.69;4946179;29;20031;-58
2022/02/03 15:42:23;;;;;;;2.10;0.32;;;;;;;18.89;48.57;101163.69;4945611;29;20109;-59
2022/02/03 15:44:53;;;;;;;2.80;0.35;;;;;;;18.88;48.58;101162.03;4942400;29;20031;-59
2022/02/03 15:50:35;;;;;;;3.20;0.32;;;;;;;18.89;48.41;101160.22;4944825;29;20046;-59
2022/02/03 16:00:07;;;;;;;5.45;0.70;;;;;;;18.82;47.96;101165.41;4951950;29;20109;-59
2022/02/03 16:04:26;;;;;;;3.20;0.40;;;;;;;18.81;47.54;101155.03;4933503;29;20074;-59
2022/02/03 16:17:21;;;;;;;1.35;0.20;;;;;;;18.80;47.84;101156.84;4952190;29;20031;-59
2022/02/03 16:19:57;;;;;;;1.95;0.20;;;;;;;18.80;47.49;101156.84;4951981;28;20381;-59
2022/02/03 16:24:57;;;;;;;1.10;0.40;;;;;;;18.85;47.19;101149.19;4951877;29;20270;-59
2022/02/03 16:54:34;;;;;;;2.40;0.30;;;;;;;19.36;46.34;101161.63;4910303;29;20485;-58
2022/02/03 16:57:04;;;;;;;6.97;0.30;;;;;;;19.41;46.32;101159.22;4911080;29;20082;-58
2022/02/03 16:59:32;;;;;;;2.38;0.65;;;;;;;19.44;46.19;101151.75;4923481;29;20461;-59
2022/02/03 17:01:57;;;;;;;2.20;0.50;;;;;;;19.50;46.35;101156.31;4929092;29;20127;-59
2022/02/03 17:04:23;;;;;;;0.95;0.20;;;;;;;19.57;46.24;101160.88;4928528;29;20047;-59
2022/02/03 17:06:48;;;;;;;1.58;0.32;;;;;;;19.61;46.00;101165.59;4928856;29;20027;-59
2022/02/03 17:09:14;;;;;;;1.77;0.20;;;;;;;19.63;45.93;101160.97;4928959;29;20102;-58
2022/02/03 17:11:40;;;;;;;1.90;0.25;;;;;;;19.65;46.12;101172.16;4926344;29;20063;-59
2022/02/03 17:14:06;;;;;;;2.05;0.40;;;;;;;19.69;46.08;101170.78;4910005;29;20028;-60
2022/02/03 17:16:32;;;;;;;4.55;0.28;;;;;;;19.71;45.93;101168.78;4909680;29;20040;-59
2022/02/03 17:18:58;;;;;;;1.38;0.50;;;;;;;19.76;45.86;101168.22;4911624;29;20083;-59
2022/02/03 17:21:27;;;;;;;0.65;0.30;;;;;;;19.80;45.93;101153.63;4927879;29;20436;-59
2022/02/03 17:23:53;;;;;;;0.77;0.22;;;;;;;19.84;45.93;101166.28;4948726;29;20039;-59
2022/02/03 17:26:31;;;;;;;0.75;0.20;;;;;;;19.89;45.48;101168.31;4950909;29;20546;-59
2022/02/03 17:29:13;;;;;;;2.20;0.30;;;;;;;19.93;45.55;101169.59;4950826;29;20035;-59
2022/02/03 18:09:27;;;;;;;2.65;0.38;;;;;;;20.69;45.39;101175.16;4948223;29;20443;-60
2022/02/03 18:54:25;;;;;;;5.32;0.52;;;;;;;20.31;46.38;101150.81;4944606;29;20071;-59
2022/02/03 18:57:00;;;;;;;3.63;0.80;;;;;;;20.29;46.30;101161.59;4945853;29;20499;-60
2022/02/03 19:02:30;;;;;;;4.70;1.20;;;;;;;20.27;46.75;101162.78;4944009;29;20066;-63
2022/02/03 20:09:19;;;;;;;53.25;15.07;;;;;;;20.59;54.94;101148.19;4949224;29;20106;-58
2022/02/03 20:11:46;;;;;;;37.17;12.07;;;;;;;20.60;54.33;101152.47;4949757;29;20547;-59
2022/02/03 20:14:14;;;;;;;15.77;6.50;;;;;;;20.54;51.81;101140.81;4949239;29;20591;-59
2022/02/03 20:16:41;;;;;;;14.75;6.85;;;;;;;20.42;49.45;101148.47;4949229;29;20062;-60
2022/02/03 20:19:06;;;;;;;11.98;6.07;;;;;;;20.30;48.70;101139.41;4949367;29;20972;-59
2022/02/03 20:21:34;;;;;;;15.18;6.78;;;;;;;20.24;47.15;101134.06;4949476;28;20059;-62
2022/02/03 20:24:03;;;;;;;15.55;7.25;;;;;;;20.23;45.66;101133.25;4949616;29;20373;-63
2022/02/03 20:26:28;;;;;;;16.00;6.32;;;;;;;20.25;45.46;101138.34;4948526;29;20075;-62
2022/02/03 20:28:54;;;;;;;12.18;5.53;;;;;;;20.26;45.98;101140.00;4948475;29;22130;-60
2022/02/03 20:31:19;;;;;;;14.48;5.80;;;;;;;20.26;46.47;101124.13;4948727;29;20023;-60
2022/02/03 20:33:45;;;;;;;8.35;5.40;;;;;;;20.25;45.91;101123.28;4949353;29;20191;-59
2022/02/03 20:36:10;;;;;;;9.93;5.20;;;;;;;20.24;46.12;101126.13;4949431;29;20098;-59
2022/02/03 20:38:36;;;;;;;9.73;5.18;;;;;;;20.22;46.25;101126.31;4949354;29;20614;-61
2022/02/03 20:41:02;;;;;;;13.05;4.63;;;;;;;20.21;46.22;101122.03;4949481;29;20035;-61
2022/02/03 20:43:28;;;;;;;9.25;4.60;;;;;;;20.19;46.06;101135.47;4947850;29;20515;-61
2022/02/03 20:45:53;;;;;;;7.70;4.35;;;;;;;20.17;46.54;101132.19;4948756;29;20027;-60
2022/02/03 20:48:19;;;;;;;11.90;5.35;;;;;;;20.16;46.33;101135.84;4948635;29;20098;-61
2022/02/03 20:50:46;;;;;;;9.80;4.00;;;;;;;20.15;46.38;101141.31;4950226;29;20031;-60
2022/02/03 20:53:13;;;;;;;6.38;4.05;;;;;;;20.14;46.71;101142.31;4950513;29;20031;-61
2022/02/03 20:55:41;;;;;;;10.45;4.43;;;;;;;20.11;46.52;101140.88;4950168;28;20438;-60
2022/02/03 20:58:11;;;;;;;7.70;4.07;;;;;;;20.11;46.59;101137.41;4950095;29;20110;-61
2022/02/03 21:00:51;;;;;;;8.60;4.10;;;;;;;20.08;46.54;101138.63;4949041;29;20039;-60
2022/02/03 21:03:24;;;;;;;10.45;3.65;;;;;;;20.07;46.83;101131.69;4949254;29;20542;-59
2022/02/03 21:05:49;;;;;;;8.48;4.53;;;;;;;20.06;46.59;101130.03;4938279;29;20042;-60
2022/02/03 21:08:20;;;;;;;7.90;3.55;;;;;;;20.05;46.84;101128.41;4942065;29;20039;-60
2022/02/03 21:10:45;;;;;;;9.73;4.18;;;;;;;20.04;46.65;101131.25;4932568;29;20479;-60
2022/02/03 21:13:11;;;;;;;6.90;3.72;;;;;;;20.02;46.72;101126.16;4946408;29;20047;-61
2022/02/03 21:15:38;;;;;;;6.90;3.55;;;;;;;20.00;46.88;101133.44;4931112;29;20098;-61
2022/02/03 21:18:09;;;;;;;7.80;3.75;;;;;;;20.00;46.81;101122.06;4937977;29;20033;-60
2022/02/03 21:20:36;;;;;;;11.25;4.55;;;;;;;19.99;47.18;101123.88;4949000;29;20059;-60
2022/02/03 21:23:04;;;;;;;4.07;2.97;;;;;;;19.99;47.13;101113.28;4948733;29;20058;-60
2022/02/03 21:25:34;;;;;;;9.75;3.50;;;;;;;19.98;47.18;101109.00;4947925;29;20050;-59
2022/02/03 21:28:23;;;;;;;7.63;2.65;;;;;;;19.98;47.17;101110.84;4944434;29;20098;-60
2022/02/03 21:30:49;;;;;;;5.25;2.53;;;;;;;19.97;47.16;101115.31;4945716;29;20074;-57
2022/02/03 21:33:21;;;;;;;5.68;3.00;;;;;;;19.97;47.26;101120.59;4950121;29;20503;-59
2022/02/03 21:35:48;;;;;;;4.80;2.72;;;;;;;19.94;47.14;101114.88;4949275;29;20035;-59
2022/02/03 21:38:14;;;;;;;6.32;2.80;;;;;;;19.92;46.92;101112.41;4949550;29;20027;-58
2022/02/03 21:40:40;;;;;;;5.80;2.40;;;;;;;19.90;46.81;101106.50;4935859;29;20468;-59
2022/02/03 21:43:05;;;;;;;5.63;2.70;;;;;;;19.90;46.67;101103.84;4931608;29;20042;-57
2022/02/03 21:45:31;;;;;;;16.98;3.65;;;;;;;19.99;50.63;101100.06;4943315;28;20043;-59
2022/02/03 21:48:00;;;;;;;6.57;2.70;;;;;;;20.03;51.94;101093.41;4947880;29;20086;-58
2022/02/03 21:50:32;;;;;;;7.95;3.10;;;;;;;20.00;52.33;101085.84;4945805;29;20027;-58
2022/02/03 21:52:58;;;;;;;5.30;2.65;;;;;;;19.97;52.03;101102.09;4946413;29;20446;-60
2022/02/03 21:55:26;;;;;;;8.13;2.65;;;;;;;19.94;51.53;101099.81;4947635;29;20512;-60
2022/02/03 21:57:54;;;;;;;5.07;2.92;;;;;;;19.92;51.01;101099.19;4948047;29;20522;-59
2022/02/03 22:00:21;;;;;;;6.70;1.90;;;;;;;19.88;50.80;101097.94;4947772;29;20427;-60
2022/02/03 22:02:47;;;;;;;5.68;2.20;;;;;;;19.87;50.25;101098.94;4947153;29;20027;-60
2022/02/03 22:05:13;;;;;;;5.03;1.98;;;;;;;19.85;49.82;101099.13;4947689;29;20683;-58
2022/02/03 22:07:41;;;;;;;9.70;2.42;;;;;;;19.84;49.47;101094.06;4947289;28;20035;-59
2022/02/03 22:10:11;;;;;;;6.85;2.03;;;;;;;19.81;49.08;101099.72;4948179;29;20038;-59
2022/02/03 22:12:37;;;;;;;3.97;1.60;;;;;;;19.80;48.65;101100.75;4947207;29;20455;-59
2022/02/03 22:15:04;;;;;;;7.32;1.58;;;;;;;19.78;48.41;101098.28;4947752;29;20046;-59
2022/02/03 22:17:30;;;;;;;4.72;2.00;;;;;;;19.78;48.32;101094.81;4947100;29;20039;-58
2022/02/03 22:19:55;;;;;;;4.85;2.10;;;;;;;19.76;47.84;101094.19;4947551;29;20440;-59
2022/02/03 22:22:43;;;;;;;4.68;2.00;;;;;;;19.76;48.45;101091.53;4943293;29;20042;-59
2022/02/03 22:48:50;;;;;;;4.05;1.80;;;;;;;19.67;49.17;101077.63;4942216;29;20062;-61
2022/02/03 22:51:15;;;;;;;4.88;1.90;;;;;;;19.66;48.85;101078.63;4946381;29;20042;-59
2022/02/03 22:53:42;;;;;;;3.63;1.55;;;;;;;19.66;48.83;101083.09;4946919;29;20443;-59
2022/02/03 22:56:12;;;;;;;12.90;2.33;;;;;;;19.64;48.80;101074.53;4946743;29;20027;-59
2022/02/03 22:59:20;;;;;;;5.72;2.55;;;;;;;19.63;48.82;101072.91;4945960;29;20054;-58
2022/02/03 23:01:42;;;;;;;6.40;2.10;;;;;;;19.59;48.81;101064.53;4935718;29;20046;-59
2022/02/03 23:04:09;;;;;;;7.00;2.40;;;;;;;19.58;48.77;101067.38;4947182;29;20035;-59
2022/02/03 23:06:34;;;;;;;5.72;2.15;;;;;;;19.58;48.67;101072.66;4944773;29;20043;-59
2022/02/03 23:09:18;;;;;;;4.38;2.20;;;;;;;19.57;48.47;101077.13;4945673;29;20502;-59
2022/02/03 23:17:04;;;;;;;5.07;2.25;;;;;;;19.54;48.36;101072.22;4944521;29;20027;-59